sensor_id;sensor_type;location;lat;lon;timestamp;pressure;altitude;pressure_sealevel;temperature;humidity
19508;BME280;40157;42.566;27.526;2023-02-28T00:00:50;101862.03;;;11.79;73.42
19508;BME280;40157;42.566;27.526;2023-02-28T00:02:50;101907.81;;;11.88;73.62
19508;BME280;40157;42.566;27.526;2023-02-28T00:04:51;101864.94;;;11.60;73.35
19508;BME280;40157;42.566;27.526;2023-02-28T00:06:53;101869.78;;;11.75;73.31
19508;BME280;40157;42.566;27.526;2023-02-28T00:08:53;101794.94;;;11.32;72.95
19508;BME280;40157;42.566;27.526;2023-02-28T00:10:54;101811.06;;;11.44;72.60
19508;BME280;40157;42.566;27.526;2023-02-28T00:12:56;101886.63;;;11.81;72.84
19508;BME280;40157;42.566;27.526;2023-02-28T00:14:59;101855.16;;;11.54;72.80
19508;BME280;40157;42.566;27.526;2023-02-28T00:16:59;101884.25;;;11.62;73.03
19508;BME280;40157;42.566;27.526;2023-02-28T00:19:00;101907.50;;;11.77;72.95
19508;BME280;40157;42.566;27.526;2023-02-28T00:21:01;101921.44;;;11.74;72.58
19508;BME280;40157;42.566;27.526;2023-02-28T00:23:01;101913.50;;;11.73;72.39
19508;BME280;40157;42.566;27.526;2023-02-28T00:25:08;101891.16;;;11.58;72.34
19508;BME280;40157;42.566;27.526;2023-02-28T00:27:18;101809.00;;;11.05;72.14
19508;BME280;40157;42.566;27.526;2023-02-28T00:29:18;101852.66;;;11.30;72.18
19508;BME280;40157;42.566;27.526;2023-02-28T00:31:18;101942.47;;;11.74;72.24
19508;BME280;40157;42.566;27.526;2023-02-28T00:33:19;101932.72;;;11.72;72.34
19508;BME280;40157;42.566;27.526;2023-02-28T00:35:19;101840.13;;;11.21;72.38
19508;BME280;40157;42.566;27.526;2023-02-28T00:37:20;101917.78;;;11.69;72.46
19508;BME280;40157;42.566;27.526;2023-02-28T00:39:21;101923.03;;;11.69;72.62
19508;BME280;40157;42.566;27.526;2023-02-28T00:41:23;101902.50;;;11.56;72.60
19508;BME280;40157;42.566;27.526;2023-02-28T00:43:23;101875.41;;;11.29;72.75
19508;BME280;40157;42.566;27.526;2023-02-28T00:45:24;101939.59;;;11.66;73.15
19508;BME280;40157;42.566;27.526;2023-02-28T00:47:24;101947.41;;;11.65;73.19
19508;BME280;40157;42.566;27.526;2023-02-28T00:49:26;101942.09;;;11.63;73.27
19508;BME280;40157;42.566;27.526;2023-02-28T00:51:27;101927.56;;;11.46;73.30
19508;BME280;40157;42.566;27.526;2023-02-28T00:53:27;101951.06;;;11.70;73.38
19508;BME280;40157;42.566;27.526;2023-02-28T00:55:28;101887.88;;;11.37;73.67
19508;BME280;40157;42.566;27.526;2023-02-28T00:57:29;101875.50;;;11.33;73.34
19508;BME280;40157;42.566;27.526;2023-02-28T00:59:31;101947.63;;;11.71;73.44
19508;BME280;40157;42.566;27.526;2023-02-28T01:01:32;101900.25;;;11.41;73.30
19508;BME280;40157;42.566;27.526;2023-02-28T01:03:41;101934.31;;;11.66;73.41
19508;BME280;40157;42.566;27.526;2023-02-28T01:05:42;101945.72;;;11.67;73.26
19508;BME280;40157;42.566;27.526;2023-02-28T01:07:43;101941.28;;;11.64;73.13
19508;BME280;40157;42.566;27.526;2023-02-28T01:09:43;101943.03;;;11.65;73.27
19508;BME280;40157;42.566;27.526;2023-02-28T01:11:44;101908.81;;;11.35;73.15
19508;BME280;40157;42.566;27.526;2023-02-28T01:13:45;101952.66;;;11.65;73.38
19508;BME280;40157;42.566;27.526;2023-02-28T01:15:51;101880.16;;;11.14;73.13
19508;BME280;40157;42.566;27.526;2023-02-28T01:17:52;101911.34;;;11.32;73.09
19508;BME280;40157;42.566;27.526;2023-02-28T01:19:54;101938.13;;;11.47;72.99
19508;BME280;40157;42.566;27.526;2023-02-28T01:21:55;101939.22;;;11.54;72.92
19508;BME280;40157;42.566;27.526;2023-02-28T01:23:57;101964.06;;;11.65;72.91
19508;BME280;40157;42.566;27.526;2023-02-28T01:26:04;101927.69;;;11.51;73.00
19508;BME280;40157;42.566;27.526;2023-02-28T01:28:05;101946.53;;;11.64;73.08
19508;BME280;40157;42.566;27.526;2023-02-28T01:30:07;101947.34;;;11.63;73.00
19508;BME280;40157;42.566;27.526;2023-02-28T01:32:08;101918.50;;;11.36;72.96
19508;BME280;40157;42.566;27.526;2023-02-28T01:34:09;101864.09;;;11.05;73.19
19508;BME280;40157;42.566;27.526;2023-02-28T01:36:14;101956.72;;;11.55;73.33
19508;BME280;40157;42.566;27.526;2023-02-28T01:38:15;101965.53;;;11.57;73.24
19508;BME280;40157;42.566;27.526;2023-02-28T01:40:15;101965.47;;;11.54;73.40
19508;BME280;40157;42.566;27.526;2023-02-28T01:42:16;101969.69;;;11.49;73.29
19508;BME280;40157;42.566;27.526;2023-02-28T01:46:54;101927.69;;;11.23;73.68
19508;BME280;40157;42.566;27.526;2023-02-28T01:49:13;101946.34;;;11.31;73.74
19508;BME280;40157;42.566;27.526;2023-02-28T01:51:49;101974.78;;;11.44;73.50
19508;BME280;40157;42.566;27.526;2023-02-28T01:53:59;101993.22;;;11.46;73.80
19508;BME280;40157;42.566;27.526;2023-02-28T01:56:04;101962.75;;;11.25;73.92
19508;BME280;40157;42.566;27.526;2023-02-28T01:58:07;101996.34;;;11.36;74.10
19508;BME280;40157;42.566;27.526;2023-02-28T02:00:13;101956.22;;;11.13;74.19
19508;BME280;40157;42.566;27.526;2023-02-28T02:02:16;101953.34;;;11.05;74.39
19508;BME280;40157;42.566;27.526;2023-02-28T02:04:17;101992.38;;;11.21;74.47
19508;BME280;40157;42.566;27.526;2023-02-28T02:06:19;101955.13;;;11.06;74.60
19508;BME280;40157;42.566;27.526;2023-02-28T02:08:23;101898.44;;;10.60;74.83
19508;BME280;40157;42.566;27.526;2023-02-28T02:10:38;101887.91;;;10.58;74.76
19508;BME280;40157;42.566;27.526;2023-02-28T02:15:13;101973.28;;;11.00;74.88
19508;BME280;40157;42.566;27.526;2023-02-28T02:17:34;101979.56;;;11.05;75.01
19508;BME280;40157;42.566;27.526;2023-02-28T02:24:29;101971.38;;;11.21;74.98
19508;BME280;40157;42.566;27.526;2023-02-28T02:27:03;101965.00;;;11.13;74.86
19508;BME280;40157;42.566;27.526;2023-02-28T02:42:16;101969.66;;;10.96;75.71
19508;BME280;40157;42.566;27.526;2023-02-28T02:44:37;101983.13;;;11.07;75.37
19508;BME280;40157;42.566;27.526;2023-02-28T02:46:43;101926.03;;;10.74;75.60
19508;BME280;40157;42.566;27.526;2023-02-28T02:48:45;101961.41;;;10.85;75.80
19508;BME280;40157;42.566;27.526;2023-02-28T02:50:53;101936.31;;;10.68;75.90
19508;BME280;40157;42.566;27.526;2023-02-28T02:52:57;101985.56;;;11.01;76.12
19508;BME280;40157;42.566;27.526;2023-02-28T02:55:02;101957.16;;;10.89;75.94
19508;BME280;40157;42.566;27.526;2023-02-28T02:57:08;101990.84;;;11.02;75.90
19508;BME280;40157;42.566;27.526;2023-02-28T02:59:13;101959.47;;;10.80;76.23
19508;BME280;40157;42.566;27.526;2023-02-28T03:01:22;101991.66;;;11.00;75.89
19508;BME280;40157;42.566;27.526;2023-02-28T03:03:31;101988.19;;;11.01;75.79
19508;BME280;40157;42.566;27.526;2023-02-28T03:05:39;101980.28;;;10.99;75.53
19508;BME280;40157;42.566;27.526;2023-02-28T03:07:41;101964.97;;;10.87;75.51
19508;BME280;40157;42.566;27.526;2023-02-28T03:09:53;101961.22;;;10.79;75.75
19508;BME280;40157;42.566;27.526;2023-02-28T03:11:55;101907.41;;;10.42;75.80
19508;BME280;40157;42.566;27.526;2023-02-28T03:16:45;102010.69;;;10.94;75.97
19508;BME280;40157;42.566;27.526;2023-02-28T03:26:00;101978.28;;;10.68;75.96
19508;BME280;40157;42.566;27.526;2023-02-28T03:28:22;102027.22;;;10.91;76.24
19508;BME280;40157;42.566;27.526;2023-02-28T03:30:32;101985.28;;;10.69;76.20
19508;BME280;40157;42.566;27.526;2023-02-28T03:32:39;102015.78;;;10.89;76.38
19508;BME280;40157;42.566;27.526;2023-02-28T03:34:50;102017.66;;;10.93;76.12
19508;BME280;40157;42.566;27.526;2023-02-28T03:36:59;101991.00;;;10.81;76.00
19508;BME280;40157;42.566;27.526;2023-02-28T03:39:04;102007.16;;;10.93;75.88
19508;BME280;40157;42.566;27.526;2023-02-28T03:41:17;102002.91;;;10.97;75.95
19508;BME280;40157;42.566;27.526;2023-02-28T03:43:24;101995.09;;;10.99;75.96
19508;BME280;40157;42.566;27.526;2023-02-28T03:45:29;101996.00;;;10.99;75.97
19508;BME280;40157;42.566;27.526;2023-02-28T03:49:51;101989.94;;;10.76;76.11
19508;BME280;40157;42.566;27.526;2023-02-28T03:51:56;101994.34;;;10.77;76.13
19508;BME280;40157;42.566;27.526;2023-02-28T03:54:04;102015.50;;;10.82;76.46
19508;BME280;40157;42.566;27.526;2023-02-28T03:56:31;101970.47;;;10.45;76.54
19508;BME280;40157;42.566;27.526;2023-02-28T03:58:55;102012.81;;;10.80;76.49
19508;BME280;40157;42.566;27.526;2023-02-28T04:01:11;101994.03;;;10.68;76.48
19508;BME280;40157;42.566;27.526;2023-02-28T04:03:13;102003.72;;;10.70;76.71
19508;BME280;40157;42.566;27.526;2023-02-28T04:05:14;102022.88;;;10.68;76.79
19508;BME280;40157;42.566;27.526;2023-02-28T04:07:14;102021.47;;;10.53;76.53
19508;BME280;40157;42.566;27.526;2023-02-28T04:09:15;102041.06;;;10.63;76.52
19508;BME280;40157;42.566;27.526;2023-02-28T04:13:19;102000.97;;;10.43;76.53
19508;BME280;40157;42.566;27.526;2023-02-28T04:15:19;101974.75;;;10.21;76.57
19508;BME280;40157;42.566;27.526;2023-02-28T04:17:22;101966.72;;;10.16;76.46
19508;BME280;40157;42.566;27.526;2023-02-28T04:19:23;102015.13;;;10.26;76.56
19508;BME280;40157;42.566;27.526;2023-02-28T04:21:23;101980.84;;;9.97;76.99
19508;BME280;40157;42.566;27.526;2023-02-28T04:23:24;102044.09;;;10.29;77.32
19508;BME280;40157;42.566;27.526;2023-02-28T04:25:24;101948.81;;;9.81;77.44
19508;BME280;40157;42.566;27.526;2023-02-28T04:27:25;102014.91;;;10.19;77.38
19508;BME280;40157;42.566;27.526;2023-02-28T04:29:27;102031.19;;;10.33;77.16
19508;BME280;40157;42.566;27.526;2023-02-28T04:31:28;101996.31;;;10.13;76.96
19508;BME280;40157;42.566;27.526;2023-02-28T04:33:29;101990.13;;;10.11;76.84
19508;BME280;40157;42.566;27.526;2023-02-28T04:35:30;101991.09;;;10.13;77.00
19508;BME280;40157;42.566;27.526;2023-02-28T04:37:30;102004.06;;;10.10;76.87
19508;BME280;40157;42.566;27.526;2023-02-28T04:39:36;102027.16;;;10.21;77.09
19508;BME280;40157;42.566;27.526;2023-02-28T04:41:37;101995.88;;;10.01;77.52
19508;BME280;40157;42.566;27.526;2023-02-28T04:43:37;101924.47;;;9.61;77.42
19508;BME280;40157;42.566;27.526;2023-02-28T04:45:38;102031.34;;;10.15;77.98
19508;BME280;40157;42.566;27.526;2023-02-28T04:47:38;101991.84;;;9.88;78.03
19508;BME280;40157;42.566;27.526;2023-02-28T04:49:39;102011.88;;;10.09;78.46
19508;BME280;40157;42.566;27.526;2023-02-28T04:51:41;102017.22;;;10.12;78.71
19508;BME280;40157;42.566;27.526;2023-02-28T04:53:42;102012.53;;;10.03;78.72
19508;BME280;40157;42.566;27.526;2023-02-28T04:55:43;102012.88;;;9.90;78.63
19508;BME280;40157;42.566;27.526;2023-02-28T04:57:44;101987.78;;;9.74;78.84
19508;BME280;40157;42.566;27.526;2023-02-28T04:59:44;101990.00;;;9.86;78.86
19508;BME280;40157;42.566;27.526;2023-02-28T05:01:47;102015.84;;;9.99;78.80
19508;BME280;40157;42.566;27.526;2023-02-28T05:03:49;102030.47;;;10.15;78.52
19508;BME280;40157;42.566;27.526;2023-02-28T05:05:49;102032.31;;;10.17;78.22
19508;BME280;40157;42.566;27.526;2023-02-28T05:07:50;101984.31;;;9.96;78.24
19508;BME280;40157;42.566;27.526;2023-02-28T05:09:50;102018.03;;;10.09;78.52
19508;BME280;40157;42.566;27.526;2023-02-28T05:11:51;101969.97;;;9.86;78.27
19508;BME280;40157;42.566;27.526;2023-02-28T05:13:52;102020.84;;;10.15;78.47
19508;BME280;40157;42.566;27.526;2023-02-28T05:15:54;102027.16;;;10.21;78.04
19508;BME280;40157;42.566;27.526;2023-02-28T05:17:55;102022.53;;;10.13;78.05
19508;BME280;40157;42.566;27.526;2023-02-28T05:19:55;102045.75;;;10.27;77.83
19508;BME280;40157;42.566;27.526;2023-02-28T05:21:56;102058.75;;;10.24;78.34
19508;BME280;40157;42.566;27.526;2023-02-28T05:24:02;102045.22;;;10.13;78.48
19508;BME280;40157;42.566;27.526;2023-02-28T05:26:03;102057.47;;;10.14;78.57
19508;BME280;40157;42.566;27.526;2023-02-28T05:28:04;102062.91;;;10.18;78.25
19508;BME280;40157;42.566;27.526;2023-02-28T05:30:06;102085.22;;;10.30;77.88
19508;BME280;40157;42.566;27.526;2023-02-28T05:32:11;102082.66;;;10.31;77.55
19508;BME280;40157;42.566;27.526;2023-02-28T05:34:12;102070.47;;;10.32;77.54
19508;BME280;40157;42.566;27.526;2023-02-28T05:36:13;102085.50;;;10.36;77.45
19508;BME280;40157;42.566;27.526;2023-02-28T05:38:13;102080.47;;;10.42;77.20
19508;BME280;40157;42.566;27.526;2023-02-28T05:40:14;102082.25;;;10.43;77.19
19508;BME280;40157;42.566;27.526;2023-02-28T05:42:15;102085.69;;;10.42;77.20
19508;BME280;40157;42.566;27.526;2023-02-28T05:44:16;101920.88;;;9.37;77.10
19508;BME280;40157;42.566;27.526;2023-02-28T05:46:18;102044.97;;;10.07;77.09
19508;BME280;40157;42.566;27.526;2023-02-28T05:48:18;102104.25;;;10.47;77.13
19508;BME280;40157;42.566;27.526;2023-02-28T05:50:19;101995.84;;;9.78;77.38
19508;BME280;40157;42.566;27.526;2023-02-28T05:52:19;102058.88;;;9.83;77.80
19508;BME280;40157;42.566;27.526;2023-02-28T05:54:20;101953.38;;;9.21;78.35
19508;BME280;40157;42.566;27.526;2023-02-28T05:56:20;102046.81;;;9.66;78.50
19508;BME280;40157;42.566;27.526;2023-02-28T05:58:21;102061.97;;;9.73;78.73
19508;BME280;40157;42.566;27.526;2023-02-28T06:00:21;102084.81;;;9.77;78.99
19508;BME280;40157;42.566;27.526;2023-02-28T06:02:22;102085.28;;;9.67;79.08
19508;BME280;40157;42.566;27.526;2023-02-28T06:04:23;102109.28;;;9.77;78.85
19508;BME280;40157;42.566;27.526;2023-02-28T06:06:23;102096.75;;;9.70;79.05
19508;BME280;40157;42.566;27.526;2023-02-28T06:08:23;102095.53;;;9.62;78.97
19508;BME280;40157;42.566;27.526;2023-02-28T06:10:24;102117.25;;;10.23;88.15
19508;BME280;40157;42.566;27.526;2023-02-28T06:12:24;102114.69;;;10.68;88.37
19508;BME280;40157;42.566;27.526;2023-02-28T06:14:25;102122.84;;;10.53;84.31
19508;BME280;40157;42.566;27.526;2023-02-28T06:16:27;102107.53;;;10.41;80.63
19508;BME280;40157;42.566;27.526;2023-02-28T06:18:28;102086.63;;;10.22;79.62
19508;BME280;40157;42.566;27.526;2023-02-28T06:20:28;102091.75;;;10.18;80.08
19508;BME280;40157;42.566;27.526;2023-02-28T06:22:29;102102.94;;;10.35;82.85
19508;BME280;40157;42.566;27.526;2023-02-28T06:24:30;102072.16;;;10.31;83.44
19508;BME280;40157;42.566;27.526;2023-02-28T06:26:31;102076.91;;;10.40;83.05
19508;BME280;40157;42.566;27.526;2023-02-28T06:28:31;102114.88;;;10.74;82.24
19508;BME280;40157;42.566;27.526;2023-02-28T06:30:32;102086.59;;;10.65;80.66
19508;BME280;40157;42.566;27.526;2023-02-28T06:32:33;102109.00;;;10.80;79.44
19508;BME280;40157;42.566;27.526;2023-02-28T06:34:36;102113.88;;;10.93;79.08
19508;BME280;40157;42.566;27.526;2023-02-28T06:36:37;102111.56;;;11.02;78.83
19508;BME280;40157;42.566;27.526;2023-02-28T06:38:39;102120.53;;;11.07;77.74
19508;BME280;40157;42.566;27.526;2023-02-28T06:40:40;102121.31;;;11.05;77.07
19508;BME280;40157;42.566;27.526;2023-02-28T06:42:41;102089.97;;;10.85;76.74
19508;BME280;40157;42.566;27.526;2023-02-28T06:44:42;102121.03;;;11.21;76.65
19508;BME280;40157;42.566;27.526;2023-02-28T06:46:44;102125.75;;;11.32;76.14
19508;BME280;40157;42.566;27.526;2023-02-28T06:48:45;102074.41;;;11.14;75.77
19508;BME280;40157;42.566;27.526;2023-02-28T06:50:47;102146.03;;;11.36;75.28
19508;BME280;40157;42.566;27.526;2023-02-28T06:52:47;102133.59;;;11.30;74.96
19508;BME280;40157;42.566;27.526;2023-02-28T06:54:48;102066.56;;;10.91;74.29
19508;BME280;40157;42.566;27.526;2023-02-28T06:56:59;102141.41;;;11.28;74.39
19508;BME280;40157;42.566;27.526;2023-02-28T07:01:29;102026.66;;;10.52;74.02
19508;BME280;40157;42.566;27.526;2023-02-28T07:03:34;102108.31;;;10.85;74.28
19508;BME280;40157;42.566;27.526;2023-02-28T07:05:35;102109.63;;;10.97;74.32
19508;BME280;40157;42.566;27.526;2023-02-28T07:07:36;102096.50;;;10.97;74.41
19508;BME280;40157;42.566;27.526;2023-02-28T07:09:38;102116.16;;;11.08;74.40
19508;BME280;40157;42.566;27.526;2023-02-28T07:11:40;102106.44;;;11.05;74.48
19508;BME280;40157;42.566;27.526;2023-02-28T07:13:41;102086.00;;;10.97;74.73
19508;BME280;40157;42.566;27.526;2023-02-28T07:15:41;102105.56;;;11.05;74.53
19508;BME280;40157;42.566;27.526;2023-02-28T07:17:42;102095.50;;;10.93;74.47
19508;BME280;40157;42.566;27.526;2023-02-28T07:19:42;102022.59;;;10.60;74.56
19508;BME280;40157;42.566;27.526;2023-02-28T07:21:42;102113.09;;;11.20;74.38
19508;BME280;40157;42.566;27.526;2023-02-28T07:23:43;102103.16;;;11.11;74.27
19508;BME280;40157;42.566;27.526;2023-02-28T07:25:44;102056.53;;;10.80;74.04
19508;BME280;40157;42.566;27.526;2023-02-28T07:27:45;102136.88;;;11.24;74.21
19508;BME280;40157;42.566;27.526;2023-02-28T07:29:46;102144.66;;;11.21;73.98
19508;BME280;40157;42.566;27.526;2023-02-28T07:31:47;102109.13;;;11.07;74.21
19508;BME280;40157;42.566;27.526;2023-02-28T07:33:47;102146.34;;;11.19;74.24
19508;BME280;40157;42.566;27.526;2023-02-28T07:35:48;102124.16;;;11.11;74.25
19508;BME280;40157;42.566;27.526;2023-02-28T07:37:48;102094.69;;;10.96;74.46
19508;BME280;40157;42.566;27.526;2023-02-28T07:39:49;102074.22;;;10.85;74.49
19508;BME280;40157;42.566;27.526;2023-02-28T07:41:49;102116.06;;;11.05;74.99
19508;BME280;40157;42.566;27.526;2023-02-28T07:43:53;102134.78;;;11.14;75.16
19508;BME280;40157;42.566;27.526;2023-02-28T07:45:55;102116.81;;;11.02;74.78
19508;BME280;40157;42.566;27.526;2023-02-28T07:47:55;102144.41;;;11.15;75.00
19508;BME280;40157;42.566;27.526;2023-02-28T07:49:56;102127.44;;;11.05;75.11
19508;BME280;40157;42.566;27.526;2023-02-28T07:51:57;102092.94;;;10.95;74.51
19508;BME280;40157;42.566;27.526;2023-02-28T07:53:57;102154.41;;;11.25;74.74
19508;BME280;40157;42.566;27.526;2023-02-28T07:56:00;102112.69;;;11.09;74.41
19508;BME280;40157;42.566;27.526;2023-02-28T07:58:01;102176.47;;;11.30;74.34
19508;BME280;40157;42.566;27.526;2023-02-28T08:00:04;102154.34;;;11.24;74.62
19508;BME280;40157;42.566;27.526;2023-02-28T08:02:05;102138.16;;;11.11;74.72
19508;BME280;40157;42.566;27.526;2023-02-28T08:04:05;102165.66;;;11.21;74.34
19508;BME280;40157;42.566;27.526;2023-02-28T08:06:08;102161.72;;;11.10;74.53
19508;BME280;40157;42.566;27.526;2023-02-28T08:08:15;102150.59;;;10.93;74.85
19508;BME280;40157;42.566;27.526;2023-02-28T08:10:17;102150.78;;;10.98;75.07
19508;BME280;40157;42.566;27.526;2023-02-28T08:12:17;102164.19;;;11.05;75.45
19508;BME280;40157;42.566;27.526;2023-02-28T08:14:18;102148.22;;;10.99;75.67
19508;BME280;40157;42.566;27.526;2023-02-28T08:16:18;102167.78;;;11.07;75.55
19508;BME280;40157;42.566;27.526;2023-02-28T08:18:22;102151.84;;;11.03;75.58
19508;BME280;40157;42.566;27.526;2023-02-28T08:20:25;102159.41;;;11.18;75.37
19508;BME280;40157;42.566;27.526;2023-02-28T08:22:25;102066.03;;;10.76;75.21
19508;BME280;40157;42.566;27.526;2023-02-28T08:24:26;102125.94;;;11.12;75.46
19508;BME280;40157;42.566;27.526;2023-02-28T08:26:26;102149.91;;;11.21;75.58
19508;BME280;40157;42.566;27.526;2023-02-28T08:28:27;102131.28;;;11.15;75.89
19508;BME280;40157;42.566;27.526;2023-02-28T08:30:27;102110.03;;;11.07;75.10
19508;BME280;40157;42.566;27.526;2023-02-28T08:32:28;102132.47;;;11.23;75.17
19508;BME280;40157;42.566;27.526;2023-02-28T08:34:32;102129.16;;;11.05;75.24
19508;BME280;40157;42.566;27.526;2023-02-28T08:36:32;102147.16;;;11.18;75.33
19508;BME280;40157;42.566;27.526;2023-02-28T08:38:35;102128.13;;;11.00;75.36
19508;BME280;40157;42.566;27.526;2023-02-28T08:40:36;102174.16;;;11.14;75.73
19508;BME280;40157;42.566;27.526;2023-02-28T08:42:37;102160.28;;;11.18;75.48
19508;BME280;40157;42.566;27.526;2023-02-28T08:44:40;102145.09;;;11.09;75.30
19508;BME280;40157;42.566;27.526;2023-02-28T08:46:41;102037.19;;;10.53;75.30
19508;BME280;40157;42.566;27.526;2023-02-28T08:48:42;102121.06;;;10.99;75.65
19508;BME280;40157;42.566;27.526;2023-02-28T08:50:42;102148.97;;;11.19;75.56
19508;BME280;40157;42.566;27.526;2023-02-28T08:52:44;102162.53;;;11.32;75.22
19508;BME280;40157;42.566;27.526;2023-02-28T08:54:44;102143.91;;;11.25;75.11
19508;BME280;40157;42.566;27.526;2023-02-28T08:56:45;102167.88;;;11.35;75.32
19508;BME280;40157;42.566;27.526;2023-02-28T08:58:48;102162.53;;;11.32;75.59
19508;BME280;40157;42.566;27.526;2023-02-28T09:00:50;102164.25;;;11.31;75.66
19508;BME280;40157;42.566;27.526;2023-02-28T09:02:50;102157.03;;;11.25;75.71
19508;BME280;40157;42.566;27.526;2023-02-28T09:04:51;102124.09;;;11.09;75.76
19508;BME280;40157;42.566;27.526;2023-02-28T09:06:52;102161.34;;;11.23;75.79
19508;BME280;40157;42.566;27.526;2023-02-28T09:08:52;102107.75;;;10.94;76.06
19508;BME280;40157;42.566;27.526;2023-02-28T09:10:53;102154.69;;;11.33;76.10
19508;BME280;40157;42.566;27.526;2023-02-28T09:12:54;102135.91;;;11.22;75.77
19508;BME280;40157;42.566;27.526;2023-02-28T09:14:55;102154.59;;;11.30;75.91
19508;BME280;40157;42.566;27.526;2023-02-28T09:16:55;102144.91;;;11.29;75.87
19508;BME280;40157;42.566;27.526;2023-02-28T09:18:56;102160.31;;;11.44;75.47
19508;BME280;40157;42.566;27.526;2023-02-28T09:20:57;102152.44;;;11.44;75.69
19508;BME280;40157;42.566;27.526;2023-02-28T09:22:57;102165.38;;;11.38;75.41
19508;BME280;40157;42.566;27.526;2023-02-28T09:24:58;102118.50;;;11.00;75.58
19508;BME280;40157;42.566;27.526;2023-02-28T09:26:58;102144.41;;;11.15;75.68
19508;BME280;40157;42.566;27.526;2023-02-28T09:29:00;102156.28;;;11.28;76.22
19508;BME280;40157;42.566;27.526;2023-02-28T09:31:00;102112.47;;;11.03;76.17
19508;BME280;40157;42.566;27.526;2023-02-28T09:33:01;102166.88;;;11.31;76.47
19508;BME280;40157;42.566;27.526;2023-02-28T09:35:01;102147.66;;;11.08;76.25
19508;BME280;40157;42.566;27.526;2023-02-28T09:37:02;102143.25;;;11.07;76.76
19508;BME280;40157;42.566;27.526;2023-02-28T09:39:05;102118.69;;;10.82;77.12
19508;BME280;40157;42.566;27.526;2023-02-28T09:41:19;102131.13;;;10.86;77.42
19508;BME280;40157;42.566;27.526;2023-02-28T09:43:22;102154.00;;;10.90;77.74
19508;BME280;40157;42.566;27.526;2023-02-28T09:45:36;102160.78;;;10.85;78.41
19508;BME280;40157;42.566;27.526;2023-02-28T09:47:44;102133.97;;;10.70;78.13
19508;BME280;40157;42.566;27.526;2023-02-28T09:49:46;102170.34;;;10.83;77.44
19508;BME280;40157;42.566;27.526;2023-02-28T09:52:04;102160.34;;;10.73;76.95
19508;BME280;40157;42.566;27.526;2023-02-28T09:54:05;102139.97;;;10.66;76.85
19508;BME280;40157;42.566;27.526;2023-02-28T09:56:11;102138.66;;;10.54;76.90
19508;BME280;40157;42.566;27.526;2023-02-28T09:58:26;102157.28;;;10.62;76.99
19508;BME280;40157;42.566;27.526;2023-02-28T10:00:36;102161.16;;;10.72;77.02
19508;BME280;40157;42.566;27.526;2023-02-28T10:03:24;102156.84;;;10.74;76.60
19508;BME280;40157;42.566;27.526;2023-02-28T10:05:34;102148.59;;;10.63;76.68
19508;BME280;40157;42.566;27.526;2023-02-28T10:10:17;102138.78;;;10.58;76.60
19508;BME280;40157;42.566;27.526;2023-02-28T10:12:20;102151.41;;;10.68;76.53
19508;BME280;40157;42.566;27.526;2023-02-28T10:14:26;102153.09;;;10.67;75.98
19508;BME280;40157;42.566;27.526;2023-02-28T10:16:56;102113.84;;;10.46;76.13
19508;BME280;40157;42.566;27.526;2023-02-28T10:21:00;102141.34;;;10.56;77.18
19508;BME280;40157;42.566;27.526;2023-02-28T10:23:19;102137.91;;;10.59;77.07
19508;BME280;40157;42.566;27.526;2023-02-28T10:25:23;102138.53;;;10.51;76.82
19508;BME280;40157;42.566;27.526;2023-02-28T10:27:28;102130.59;;;10.50;77.25
19508;BME280;40157;42.566;27.526;2023-02-28T10:29:31;102120.03;;;10.48;77.63
19508;BME280;40157;42.566;27.526;2023-02-28T10:31:33;102070.16;;;10.24;77.34
19508;BME280;40157;42.566;27.526;2023-02-28T10:33:34;102070.66;;;10.15;77.32
19508;BME280;40157;42.566;27.526;2023-02-28T10:35:35;102131.13;;;10.41;77.52
19508;BME280;40157;42.566;27.526;2023-02-28T10:37:41;102134.69;;;10.43;77.70
19508;BME280;40157;42.566;27.526;2023-02-28T10:39:44;102106.34;;;10.33;78.23
19508;BME280;40157;42.566;27.526;2023-02-28T10:41:45;102076.41;;;10.28;77.89
19508;BME280;40157;42.566;27.526;2023-02-28T10:43:46;102107.06;;;10.51;77.92
19508;BME280;40157;42.566;27.526;2023-02-28T10:45:59;102096.44;;;10.48;77.85
19508;BME280;40157;42.566;27.526;2023-02-28T10:48:24;102087.50;;;10.43;77.94
19508;BME280;40157;42.566;27.526;2023-02-28T10:50:37;102080.38;;;10.18;78.58
19508;BME280;40157;42.566;27.526;2023-02-28T10:52:42;102070.53;;;10.12;79.06
19508;BME280;40157;42.566;27.526;2023-02-28T10:54:42;102003.56;;;9.75;79.22
19508;BME280;40157;42.566;27.526;2023-02-28T10:56:43;102075.81;;;10.14;79.38
19508;BME280;40157;42.566;27.526;2023-02-28T10:59:29;102089.19;;;10.20;79.78
19508;BME280;40157;42.566;27.526;2023-02-28T11:03:33;102084.94;;;10.01;79.81
19508;BME280;40157;42.566;27.526;2023-02-28T11:05:36;102079.38;;;9.93;79.83
19508;BME280;40157;42.566;27.526;2023-02-28T11:07:37;102060.84;;;9.89;80.09
19508;BME280;40157;42.566;27.526;2023-02-28T11:09:40;102055.63;;;9.89;80.15
19508;BME280;40157;42.566;27.526;2023-02-28T11:11:43;102071.59;;;9.95;80.22
19508;BME280;40157;42.566;27.526;2023-02-28T11:13:45;102044.53;;;9.73;80.08
19508;BME280;40157;42.566;27.526;2023-02-28T11:15:57;102092.53;;;9.95;79.95
19508;BME280;40157;42.566;27.526;2023-02-28T11:18:19;102080.19;;;9.92;80.11
19508;BME280;40157;42.566;27.526;2023-02-28T11:20:23;102077.53;;;9.91;80.01
19508;BME280;40157;42.566;27.526;2023-02-28T11:22:29;102069.56;;;9.88;80.03
19508;BME280;40157;42.566;27.526;2023-02-28T11:24:35;102093.44;;;9.95;79.96